Empire, MI

2:39 AM EDT on July 08, 2015 (GMT -0400)
APRSWXNET | | Change Station
CLOSE
Current Station
Personal Weather Station
Location: Glen Arbor, MI
Elevation: 590 ft
Nearby Weather Stations

Elev 590 ft 44.89 °N, 86.01 °W | Updated 21 minutes ago

Clear
Clear
48 °F
Feels Like 48 °F
N
0
Wind Variable Wind from SSE
Gusts 0.0 mph

Today
High -- | Low -- °F
--% Chance of Precip.
Yesterday
High -- | Low -- °F
Precip. -- in
6:06 AM 9:31 PM
Waning Gibbous, 57% visible
Pressure 30.12 in
Visibility 5.0 miles
Clouds Clear
Windchill 48 °F
Dew Point 47 °F
Humidity 95%
Rainfall in
Snow Depth Not available.
UV 0 out of 12
Pollen .60 out of 12
Air Quality Not available.
Flu Activity Not available.
METAR KFKS 080635Z AUTO 00000KT 5SM HZ CLR 09/06 A3012 RMK AO2 T00900058

More Conditions Fewer Conditions

Pressure 30.12 in
Visibility 5.0 miles
Clouds Clear
Windchill 48 °F
Dew Point 47 °F
Humidity 95%
Rainfall in
Snow Depth Not available.
UV 0 out of 12
Pollen .60 out of 12
Air Quality Not available.
Flu Activity Not available.
METAR KFKS 080635Z AUTO 00000KT 5SM HZ CLR 09/06 A3012 RMK AO2 T00900058

More Conditions Fewer Conditions

Nowcast | as of 2:00 am EDT on July 8, 2015

At 3 am...clear. Temperature 54. Light winds. At 5 am...mostly clear. Temperature 54. Light winds. At 7 am...mostly clear. Temperature 56. Light winds. At 9 am...clear. Temperature 60. Light winds.

×

10-Day Weather Forecast

×

Almanac

Astronomy

Jul. 08, 2015 Rise Set
Actual Time
Civil Twilight
Nautical Twilight
Astronomical Twilight
Moon
Length of Visible Light
Length of Day
Tomorrow will be .
, % of the Moon is Illuminated

Today's Extremes

State Highs State Lows

Community

WunderPhotos

Upload Photos

1,836,064 photos uploaded!

WunderBlogs® & News

Nearby

Air Quality

  Air Quality AQ Index Pollutant
Not available.

Snow Depth

Station Depth Elevation

Earthquake Activity

City Distance Mag. Time & Date
Minimum magnitude displayed is 2.5.

Coastal Water Temperatures

Place Temperature

Stations

Nearby Weather Stations

Station Location Temp. Windchill Dew Point Humidity Wind Precip. Elev Updated Type